Time;durP1;ratioP1;P1;durP2;ratioP2;P2;SDS_P1;SDS_P2;PMS_P1;PMS_P2;Temp;Humidity;BMP_temperature;BMP_pressure;BME280_temperature;BME280_humidity;BME280_pressure;Samples;Min_cycle;Max_cycle;Signal;HPM_P1;HPM_P2
2022/06/11 00:01:19;;;;;;;4.50;4.10;;;;;;;15.19;75.20;100677.60;130178;1271;108785;-76
2022/06/11 00:04:29;;;;;;;6.80;4.20;;;;;;;15.17;75.11;100676.99;130222;1270;109849;-76
2022/06/11 00:07:36;;;;;;;7.20;3.80;;;;;;;15.14;75.15;100676.35;130219;1271;108975;-76
2022/06/11 00:10:41;;;;;;;7.20;4.60;;;;;;;15.14;75.08;100676.27;130344;1271;108680;-75
2022/06/11 00:13:47;;;;;;;8.70;4.70;;;;;;;15.13;75.23;100680.84;130183;1270;108690;-75
2022/06/11 00:16:52;;;;;;;4.90;4.50;;;;;;;15.11;75.03;100678.29;130159;1271;108717;-74
2022/06/11 00:19:58;;;;;;;5.90;5.00;;;;;;;15.06;75.16;100677.80;130142;1271;108503;-75
2022/06/11 00:23:03;;;;;;;5.40;4.90;;;;;;;15.03;75.32;100678.30;130194;1271;108797;-74
2022/06/11 00:26:09;;;;;;;5.50;3.90;;;;;;;15.01;75.46;100681.21;130109;1271;108651;-75
2022/06/11 00:29:16;;;;;;;4.60;4.00;;;;;;;15.02;75.33;100684.15;130125;1271;108669;-75
2022/06/11 00:32:22;;;;;;;6.00;3.90;;;;;;;15.04;75.51;100684.48;130144;1271;108745;-75
2022/06/11 00:35:29;;;;;;;5.20;4.30;;;;;;;15.07;75.34;100689.06;130167;1269;108696;-76
2022/06/11 00:38:35;;;;;;;4.50;4.10;;;;;;;15.10;75.44;100689.04;130270;1271;108870;-76
2022/06/11 00:41:45;;;;;;;6.30;4.60;;;;;;;15.11;75.52;100689.62;130186;1270;108851;-75
2022/06/11 00:45:04;;;;;;;4.90;4.40;;;;;;;15.09;75.62;100688.55;130158;1271;108730;-76
2022/06/11 00:48:16;;;;;;;5.10;4.60;;;;;;;15.06;75.65;100687.85;130170;1269;108857;-75
2022/06/11 00:51:24;;;;;;;4.60;4.00;;;;;;;15.03;75.54;100695.53;130221;1271;108826;-74
2022/06/11 00:54:32;;;;;;;5.50;3.90;;;;;;;15.03;75.77;100700.04;130240;1271;108840;-74
2022/06/11 00:57:42;;;;;;;4.40;4.00;;;;;;;15.05;75.82;100698.90;130151;1271;108925;-75
2022/06/11 01:00:52;;;;;;;5.30;4.20;;;;;;;15.10;75.75;100700.00;129927;1271;408476;-75
2022/06/11 01:04:00;;;;;;;6.60;4.30;;;;;;;15.13;75.86;100698.40;130178;1271;108795;-74
2022/06/11 01:07:17;;;;;;;5.00;4.40;;;;;;;15.15;75.78;100699.38;130300;1270;108109;-75
2022/06/11 01:10:41;;;;;;;5.40;4.80;;;;;;;15.17;75.81;100702.73;130210;1269;108802;-76
2022/06/11 01:13:54;;;;;;;4.70;3.80;;;;;;;15.18;75.86;100699.27;130173;1271;108858;-73
2022/06/11 01:17:11;;;;;;;6.30;4.00;;;;;;;15.17;75.84;100703.98;130185;1271;108857;-73
2022/06/11 01:20:33;;;;;;;4.30;3.80;;;;;;;15.18;75.98;100702.96;130113;1270;107795;-72
2022/06/11 01:24:04;;;;;;;4.60;4.10;;;;;;;15.21;75.79;100701.05;130205;1271;109572;-73
2022/06/11 01:27:37;;;;;;;5.90;3.90;;;;;;;15.24;75.89;100693.34;130150;1271;107444;-73
2022/06/11 01:30:48;;;;;;;4.50;3.80;;;;;;;15.30;75.92;100695.16;130176;1271;108949;-75
2022/06/11 01:34:04;;;;;;;5.30;4.30;;;;;;;15.36;76.11;100695.45;130276;1271;108763;-74
2022/06/11 01:37:14;;;;;;;4.00;3.60;;;;;;;15.38;76.17;100695.91;130228;1271;109101;-75
2022/06/11 01:40:39;;;;;;;4.10;3.70;;;;;;;15.42;75.97;100697.31;130110;1271;108880;-74
2022/06/11 01:43:46;;;;;;;4.20;3.60;;;;;;;15.45;76.19;100696.63;130118;1271;108833;-73
2022/06/11 01:46:55;;;;;;;4.70;4.10;;;;;;;15.47;76.32;100690.52;130145;1273;108935;-77
2022/06/11 01:50:01;;;;;;;4.40;4.00;;;;;;;15.51;76.10;100693.17;130116;1271;108711;-77
2022/06/11 01:53:46;;;;;;;5.30;4.80;;;;;;;15.54;76.25;100696.09;130111;1271;108643;-77
2022/06/11 01:57:07;;;;;;;5.30;4.70;;;;;;;15.55;76.29;100696.67;129965;1271;108794;-77
2022/06/11 02:00:18;;;;;;;6.40;4.00;;;;;;;15.54;76.29;100689.83;130159;1270;108816;-76
2022/06/11 02:03:34;;;;;;;4.30;3.90;;;;;;;15.53;76.38;100691.05;130108;1271;108876;-76
2022/06/11 02:06:50;;;;;;;4.60;4.20;;;;;;;15.56;76.65;100691.03;130011;1271;108966;-76
2022/06/11 02:10:04;;;;;;;5.90;4.80;;;;;;;15.62;76.71;100684.21;130067;1271;108759;-76
2022/06/11 02:13:14;;;;;;;5.90;5.10;;;;;;;15.66;76.59;100678.94;130246;1271;108717;-75
2022/06/11 02:16:24;;;;;;;6.40;5.20;;;;;;;15.64;76.49;100685.21;130049;1269;107869;-76
2022/06/11 02:19:32;;;;;;;7.00;5.30;;;;;;;15.59;76.57;100685.70;129993;1271;108822;-76
2022/06/11 02:22:45;;;;;;;5.30;4.60;;;;;;;15.53;76.73;100689.20;130036;1271;108758;-76
2022/06/11 02:25:54;;;;;;;4.60;4.20;;;;;;;15.46;76.57;100691.44;130007;1271;108881;-76
2022/06/11 02:29:01;;;;;;;4.90;3.90;;;;;;;15.40;76.72;100688.52;130011;1271;108999;-77
2022/06/11 02:32:10;;;;;;;4.70;4.00;;;;;;;15.37;76.48;100693.94;130061;1271;107682;-77
2022/06/11 02:35:29;;;;;;;5.00;4.20;;;;;;;15.31;76.53;100692.61;129960;1271;108852;-76
2022/06/11 02:38:34;;;;;;;5.10;4.60;;;;;;;15.22;76.45;100689.61;130196;1271;108842;-75
2022/06/11 02:41:41;;;;;;;6.10;4.50;;;;;;;15.14;76.57;100687.02;130233;1271;108678;-76
2022/06/11 02:44:47;;;;;;;5.20;4.50;;;;;;;15.07;76.61;100688.68;130155;1271;108602;-76
2022/06/11 02:47:54;;;;;;;4.40;4.00;;;;;;;15.03;76.52;100695.61;130156;1271;107913;-76
2022/06/11 02:50:59;;;;;;;4.90;3.80;;;;;;;14.99;76.46;100697.40;130146;1271;108892;-77
2022/06/11 02:54:05;;;;;;;4.40;4.00;;;;;;;15.00;76.44;100696.22;130207;1271;108805;-79
2022/06/11 02:57:14;;;;;;;4.90;4.00;;;;;;;15.02;76.36;100699.27;130071;1271;107692;-77
2022/06/11 03:00:23;;;;;;;6.30;4.40;;;;;;;15.03;76.42;100702.52;130047;1271;108863;-78
2022/06/11 03:03:28;;;;;;;6.20;4.90;;;;;;;15.02;76.31;100699.73;130070;1270;108687;-78
2022/06/11 03:06:38;;;;;;;5.50;4.70;;;;;;;15.02;76.33;100700.81;130038;1270;108752;-78
2022/06/11 03:09:44;;;;;;;12.70;4.90;;;;;;;15.00;76.41;100704.09;130186;1270;108561;-77
2022/06/11 03:12:50;;;;;;;5.90;4.40;;;;;;;15.02;76.45;100704.41;130065;1271;108649;-76
2022/06/11 03:15:56;;;;;;;4.80;4.10;;;;;;;15.14;76.57;100702.87;130151;1271;108746;-75
2022/06/11 03:19:01;;;;;;;4.60;4.20;;;;;;;15.32;76.39;100704.50;130046;1269;109487;-77
2022/06/11 03:22:08;;;;;;;9.50;4.80;;;;;;;15.57;76.41;100706.86;130128;1270;107251;-78
2022/06/11 03:25:14;;;;;;;5.20;4.70;;;;;;;15.88;76.14;100711.20;130033;1271;108632;-77
2022/06/11 03:28:22;;;;;;;4.80;4.10;;;;;;;16.16;75.89;100710.02;130055;1271;108734;-79
2022/06/11 03:31:28;;;;;;;6.30;4.10;;;;;;;16.43;75.85;100703.57;130160;1271;108132;-79
2022/06/11 03:34:35;;;;;;;5.50;3.80;;;;;;;16.74;75.65;100704.30;130045;1271;108693;-78
2022/06/11 03:37:40;;;;;;;5.10;4.30;;;;;;;17.03;75.46;100701.52;130076;1271;108584;-79
2022/06/11 03:40:46;;;;;;;4.40;3.90;;;;;;;17.32;75.48;100704.54;130019;1271;108772;-78
2022/06/11 03:43:51;;;;;;;5.40;4.90;;;;;;;17.55;75.19;100707.50;130087;1271;108691;-79
2022/06/11 03:46:56;;;;;;;5.90;4.40;;;;;;;17.75;75.24;100708.26;129976;1271;108811;-77
2022/06/11 03:50:02;;;;;;;4.90;4.10;;;;;;;17.98;75.19;100706.39;129912;1271;108716;-79
2022/06/11 03:53:10;;;;;;;4.60;4.20;;;;;;;18.27;75.29;100713.95;129990;1271;106890;-78
2022/06/11 03:56:16;;;;;;;5.90;5.10;;;;;;;18.56;75.23;100710.65;130014;1271;108768;-78
2022/06/11 03:59:22;;;;;;;6.60;5.10;;;;;;;18.85;74.83;100718.75;130000;1270;108861;-78
2022/06/11 04:02:28;;;;;;;6.20;5.60;;;;;;;19.08;74.14;100721.08;129947;1270;108808;-79
2022/06/11 04:05:33;;;;;;;7.20;6.50;;;;;;;19.03;72.62;100718.80;129934;1271;108777;-78
2022/06/11 04:08:40;;;;;;;7.00;6.40;;;;;;;18.90;72.96;100716.13;130114;1270;108867;-76
2022/06/11 04:11:45;;;;;;;7.50;6.00;;;;;;;18.81;73.12;100713.02;130234;1270;108847;-75
2022/06/11 04:14:51;;;;;;;7.20;6.00;;;;;;;18.79;73.29;100712.45;130257;1271;108827;-76
2022/06/11 04:17:56;;;;;;;6.00;5.40;;;;;;;18.79;73.30;100711.34;130257;1271;107861;-75
2022/06/11 04:21:04;;;;;;;7.20;5.90;;;;;;;18.91;74.10;100713.80;130071;1269;108715;-79
2022/06/11 04:24:10;;;;;;;6.30;5.70;;;;;;;19.14;73.90;100709.77;130207;1271;108712;-78
2022/06/11 04:27:18;;;;;;;6.40;5.80;;;;;;;19.27;72.75;100705.05;130216;1271;107571;-86
2022/06/11 04:30:27;;;;;;;7.10;4.90;;;;;;;19.23;73.20;100705.16;130345;1271;108664;-76
2022/06/11 04:33:33;;;;;;;6.50;5.90;;;;;;;19.46;73.99;100704.13;130192;1270;108762;-79
2022/06/11 04:36:39;;;;;;;6.90;6.10;;;;;;;19.74;73.52;100710.48;130188;1271;109156;-79
2022/06/11 04:39:48;;;;;;;6.50;5.90;;;;;;;19.81;71.38;100710.09;130145;1271;109417;-80
2022/06/11 04:42:53;;;;;;;7.00;5.50;;;;;;;19.77;73.08;100708.83;130078;1271;108458;-78
2022/06/11 04:45:58;;;;;;;7.20;5.10;;;;;;;19.99;73.26;100710.29;130122;1269;108757;-79
2022/06/11 04:49:04;;;;;;;5.60;5.10;;;;;;;20.16;72.94;100713.20;130112;1271;109629;-78
2022/06/11 04:52:10;;;;;;;6.20;4.70;;;;;;;20.36;73.09;100716.23;130148;1271;108803;-77
2022/06/11 04:55:15;;;;;;;8.00;5.80;;;;;;;20.61;72.78;100717.85;130157;1271;109478;-78
2022/06/11 04:58:21;;;;;;;7.90;6.40;;;;;;;20.77;72.51;100716.75;130148;1271;108783;-79
2022/06/11 05:01:27;;;;;;;7.30;6.60;;;;;;;20.80;70.77;100716.95;129934;1271;108702;-78
2022/06/11 05:04:32;;;;;;;6.50;5.90;;;;;;;20.70;71.26;100716.13;130195;1271;108796;-79
2022/06/11 05:07:38;;;;;;;8.40;7.60;;;;;;;20.64;70.61;100721.16;130371;1271;108495;-77
2022/06/11 05:10:44;;;;;;;9.40;8.00;;;;;;;20.40;69.64;100725.17;130271;1271;108906;-76
2022/06/11 05:13:50;;;;;;;10.40;8.20;;;;;;;20.16;70.66;100728.98;130172;1270;107656;-77
2022/06/11 05:16:56;;;;;;;8.70;7.90;;;;;;;20.16;71.39;100733.49;130073;1269;108887;-78
2022/06/11 05:20:01;;;;;;;7.80;7.00;;;;;;;20.20;71.65;100733.05;130191;1270;108649;-77
2022/06/11 05:23:07;;;;;;;12.80;8.20;;;;;;;20.34;71.12;100735.63;130074;1271;108828;-76
2022/06/11 05:26:16;;;;;;;9.10;8.20;;;;;;;20.41;71.38;100732.54;130163;1271;107727;-76
2022/06/11 05:29:27;;;;;;;11.00;9.20;;;;;;;20.51;71.29;100736.80;130169;1270;108688;-75
2022/06/11 05:32:35;;;;;;;9.90;8.90;;;;;;;20.57;70.63;100736.48;130085;1271;108849;-77
2022/06/11 05:35:41;;;;;;;10.20;9.20;;;;;;;20.46;70.45;100738.47;130165;1271;109509;-76
2022/06/11 05:38:47;;;;;;;10.80;9.50;;;;;;;20.39;70.89;100742.55;130287;1270;107785;-78
2022/06/11 05:41:52;;;;;;;12.90;11.50;;;;;;;20.39;70.69;100742.42;130167;1270;108688;-78
2022/06/11 05:44:58;;;;;;;13.60;11.20;;;;;;;20.35;70.45;100744.27;130118;1271;108651;-79
2022/06/11 05:48:05;;;;;;;12.50;10.50;;;;;;;20.24;70.84;100748.35;130148;1271;108677;-80
2022/06/11 05:51:14;;;;;;;9.20;8.10;;;;;;;20.09;70.94;100752.10;130231;1271;107664;-82
2022/06/11 05:54:23;;;;;;;11.30;8.90;;;;;;;20.07;71.45;100754.02;130104;1270;108799;-82
2022/06/11 05:57:29;;;;;;;11.40;9.80;;;;;;;20.19;71.48;100754.35;130203;1271;108671;-83
2022/06/11 06:00:35;;;;;;;11.60;10.40;;;;;;;20.32;70.98;100754.12;130294;1271;108947;-83
2022/06/11 06:03:40;;;;;;;12.60;11.30;;;;;;;20.27;70.31;100757.41;130207;1270;108933;-78
2022/06/11 06:06:45;;;;;;;13.30;10.80;;;;;;;20.05;70.46;100758.02;130203;1271;108664;-80
2022/06/11 06:09:51;;;;;;;10.40;9.40;;;;;;;19.88;70.24;100756.73;130118;1271;109214;-76
2022/06/11 06:12:57;;;;;;;8.80;7.50;;;;;;;19.83;70.72;100760.01;130091;1271;108849;-76
2022/06/11 06:16:02;;;;;;;10.70;9.60;;;;;;;19.82;71.03;100770.27;130079;1271;108955;-76
2022/06/11 06:19:08;;;;;;;7.90;6.00;;;;;;;19.92;70.96;100772.16;130099;1271;108961;-77
2022/06/11 06:22:13;;;;;;;5.50;4.90;;;;;;;19.97;70.41;100769.70;130137;1269;108158;-76
2022/06/11 06:25:22;;;;;;;5.10;4.60;;;;;;;20.02;69.73;100774.67;130050;1270;109206;-77
2022/06/11 06:28:27;;;;;;;5.00;4.20;;;;;;;20.04;68.72;100775.23;130300;1270;108849;-82
2022/06/11 06:31:33;;;;;;;5.30;4.80;;;;;;;19.94;67.88;100781.31;130380;1271;107312;-84
2022/06/11 06:34:39;;;;;;;5.40;4.20;;;;;;;19.90;67.85;100786.38;130168;1271;108564;-82
2022/06/11 06:37:44;;;;;;;4.50;4.00;;;;;;;19.74;67.54;100785.08;130326;1271;108469;-83
2022/06/11 06:40:49;;;;;;;5.30;4.40;;;;;;;19.67;67.96;100785.05;130374;1270;108938;-88
2022/06/11 06:43:54;;;;;;;4.60;4.20;;;;;;;19.55;67.18;100791.54;130360;1271;107705;-86
2022/06/11 06:47:00;;;;;;;4.60;3.70;;;;;;;19.63;67.26;100787.55;130344;1271;108701;-82
2022/06/11 06:50:06;;;;;;;5.10;4.60;;;;;;;19.72;66.23;100791.48;130361;1270;108730;-83
2022/06/11 06:53:12;;;;;;;4.00;3.30;;;;;;;19.70;66.20;100790.41;130392;1270;109558;-76
2022/06/11 06:56:17;;;;;;;4.10;3.50;;;;;;;19.75;65.55;100794.46;130088;1270;107549;-81
2022/06/11 06:59:23;;;;;;;4.20;3.80;;;;;;;19.73;65.27;100795.79;130397;1270;108051;-85
2022/06/11 07:02:28;;;;;;;4.30;3.90;;;;;;;19.67;65.77;100797.88;130219;1270;108893;-77
2022/06/11 07:05:33;;;;;;;5.20;3.90;;;;;;;19.64;66.82;100798.79;130238;1271;108675;-79
2022/06/11 07:08:39;;;;;;;6.30;3.50;;;;;;;19.68;66.44;100796.80;130253;1271;108871;-82
2022/06/11 07:11:44;;;;;;;4.20;3.50;;;;;;;19.77;66.20;100798.56;130270;1271;108690;-81
2022/06/11 07:14:50;;;;;;;4.70;3.30;;;;;;;19.87;65.54;100805.48;130249;1271;107640;-80
2022/06/11 07:17:58;;;;;;;3.70;2.80;;;;;;;19.86;65.28;100806.73;130217;1271;108685;-78
2022/06/11 07:21:07;;;;;;;4.80;2.80;;;;;;;19.75;64.70;100804.00;130292;1271;108806;-76
2022/06/11 07:24:16;;;;;;;4.60;2.80;;;;;;;19.69;63.95;100800.83;130176;1271;108878;-74
2022/06/11 07:27:29;;;;;;;4.60;3.00;;;;;;;19.63;64.12;100805.41;130263;1271;109123;-77
2022/06/11 07:30:40;;;;;;;4.00;2.90;;;;;;;19.57;63.46;100807.33;130231;1271;108674;-74
2022/06/11 07:33:48;;;;;;;3.90;2.60;;;;;;;19.57;62.97;100808.73;130251;1271;108846;-76
2022/06/11 07:36:53;;;;;;;4.10;2.60;;;;;;;19.59;62.96;100809.70;130250;1271;108745;-80
2022/06/11 07:39:58;;;;;;;4.10;2.80;;;;;;;19.59;62.31;100806.91;130315;1269;108856;-87
2022/06/11 07:43:04;;;;;;;2.90;2.30;;;;;;;19.63;61.52;100806.31;130386;1270;108338;-80
2022/06/11 07:46:09;;;;;;;3.30;2.20;;;;;;;19.66;61.91;100803.38;130301;1270;108784;-80
2022/06/11 07:49:14;;;;;;;2.90;1.80;;;;;;;19.73;61.95;100800.48;130204;1271;108823;-79
2022/06/11 07:52:20;;;;;;;3.80;1.70;;;;;;;19.79;60.05;100802.77;130211;1271;108913;-75
2022/06/11 07:55:25;;;;;;;2.10;1.40;;;;;;;19.78;59.20;100807.80;130218;1270;108799;-78
2022/06/11 07:58:32;;;;;;;4.30;1.60;;;;;;;19.82;59.03;100808.66;130208;1270;108691;-76
2022/06/11 08:01:37;;;;;;;2.70;1.50;;;;;;;19.78;55.38;100817.59;130245;1271;109185;-74
2022/06/11 08:04:43;;;;;;;5.00;1.90;;;;;;;19.66;54.58;100807.54;130266;1271;107678;-80
2022/06/11 08:07:51;;;;;;;2.40;1.50;;;;;;;19.70;57.59;100805.77;130207;1270;108863;-81
2022/06/11 08:10:57;;;;;;;3.60;1.50;;;;;;;19.80;57.58;100805.02;130236;1271;108879;-81
2022/06/11 08:14:02;;;;;;;3.10;1.50;;;;;;;19.85;56.45;100804.34;130425;1271;108762;-81
2022/06/11 08:17:07;;;;;;;2.40;1.50;;;;;;;19.88;56.25;100807.75;130252;1271;108670;-78
2022/06/11 08:20:16;;;;;;;2.40;1.60;;;;;;;19.89;56.16;100807.62;130189;1271;108721;-77
2022/06/11 08:23:22;;;;;;;2.50;1.70;;;;;;;19.92;55.95;100807.00;130230;1271;108800;-78
2022/06/11 08:26:28;;;;;;;3.00;1.60;;;;;;;19.94;54.23;100809.27;130271;1269;107369;-78
2022/06/11 08:29:33;;;;;;;2.60;1.70;;;;;;;19.87;54.53;100806.69;130292;1271;108782;-79
2022/06/11 08:32:38;;;;;;;2.50;1.70;;;;;;;19.90;55.28;100800.29;130275;1271;108791;-80
2022/06/11 08:35:44;;;;;;;2.70;1.80;;;;;;;19.95;55.44;100799.43;130236;1271;108661;-83
2022/06/11 08:38:50;;;;;;;4.10;2.20;;;;;;;20.00;55.95;100805.87;130365;1271;108779;-89
2022/06/11 08:41:58;;;;;;;2.50;1.60;;;;;;;19.99;54.53;100802.05;130324;1271;109189;-87
2022/06/11 08:45:13;;;;;;;2.50;1.80;;;;;;;20.02;53.68;100796.55;130337;1270;108663;-85
2022/06/11 08:48:40;;;;;;;2.80;1.80;;;;;;;20.00;51.84;100798.95;130674;1271;108807;-89
2022/06/11 08:51:53;;;;;;;2.40;1.90;;;;;;;19.96;53.25;100802.56;130654;1270;108665;-88
2022/06/11 08:55:01;;;;;;;3.00;1.60;;;;;;;19.99;52.74;100800.88;130608;1270;108643;-87
2022/06/11 08:58:17;;;;;;;3.50;1.90;;;;;;;20.05;53.46;100793.77;130650;1269;108662;-87
2022/06/11 09:01:32;;;;;;;2.50;1.70;;;;;;;20.11;53.54;100790.67;130636;1269;108669;-85
2022/06/11 09:04:55;;;;;;;2.50;1.80;;;;;;;20.17;54.78;100789.35;130482;1271;109149;-89
2022/06/11 09:08:14;;;;;;;3.50;2.00;;;;;;;20.28;53.87;100790.30;130732;1270;107671;-85
2022/06/11 09:11:34;;;;;;;2.50;1.80;;;;;;;20.32;53.84;100788.19;130592;1270;108947;-88
2022/06/11 09:14:56;;;;;;;4.20;2.70;;;;;;;20.38;52.65;100787.96;130663;1270;108661;-90
2022/06/11 09:18:23;;;;;;;2.90;1.50;;;;;;;20.41;52.47;100788.50;130532;1270;107680;-83
2022/06/11 09:21:42;;;;;;;3.60;1.90;;;;;;;20.36;52.49;100788.45;130562;1269;108747;-82
2022/06/11 09:25:09;;;;;;;3.50;1.70;;;;;;;20.47;52.88;100787.44;130395;1271;108801;-86
2022/06/11 09:28:26;;;;;;;2.60;1.70;;;;;;;20.48;51.76;100785.48;130678;1270;108722;-82
2022/06/11 09:31:38;;;;;;;2.40;1.50;;;;;;;20.48;51.49;100787.86;130534;1270;108794;-82
2022/06/11 09:34:50;;;;;;;5.30;1.60;;;;;;;20.51;52.11;100784.23;130341;1270;108837;-84
2022/06/11 09:38:11;;;;;;;3.10;1.50;;;;;;;20.54;51.62;100782.31;130377;1270;109106;-81
2022/06/11 09:41:27;;;;;;;2.40;1.40;;;;;;;20.55;51.24;100778.45;130282;1270;108747;-84
2022/06/11 09:44:44;;;;;;;2.40;1.40;;;;;;;20.61;50.83;100772.27;130197;1271;108844;-83
2022/06/11 09:48:01;;;;;;;2.90;1.50;;;;;;;20.61;50.65;100769.02;130307;1271;108717;-85
2022/06/11 09:51:13;;;;;;;2.20;1.50;;;;;;;20.62;49.81;100772.98;130661;1270;108990;-83
2022/06/11 09:54:32;;;;;;;1.80;1.50;;;;;;;20.65;50.63;100774.65;130357;1270;109048;-87
2022/06/11 09:57:45;;;;;;;1.80;1.30;;;;;;;20.72;51.59;100770.81;130756;1271;108703;-85
2022/06/11 10:00:57;;;;;;;4.00;1.90;;;;;;;20.84;51.61;100772.23;130405;1270;108795;-87
2022/06/11 10:04:07;;;;;;;2.80;1.40;;;;;;;20.92;50.47;100766.86;130222;1270;108709;-87
2022/06/11 10:07:19;;;;;;;3.00;2.00;;;;;;;20.97;51.46;100764.89;130338;1270;108697;-85
2022/06/11 10:10:28;;;;;;;2.50;1.80;;;;;;;20.99;50.60;100764.45;130291;1269;108845;-86
2022/06/11 10:13:41;;;;;;;2.40;1.90;;;;;;;21.03;49.37;100768.15;130536;1270;108996;-83
2022/06/11 10:16:48;;;;;;;2.50;1.70;;;;;;;20.97;50.65;100758.48;130363;1270;108849;-79
2022/06/11 10:20:00;;;;;;;2.70;1.90;;;;;;;21.06;51.80;100766.98;130590;1269;108652;-85
2022/06/11 10:23:15;;;;;;;3.00;2.20;;;;;;;21.13;51.22;100760.23;130205;1271;109675;-81
2022/06/11 10:26:26;;;;;;;3.60;2.20;;;;;;;21.23;51.72;100760.24;130393;1270;108723;-83
2022/06/11 10:29:38;;;;;;;4.00;2.20;;;;;;;21.16;49.32;100762.30;130593;1270;108677;-82
2022/06/11 10:32:47;;;;;;;3.50;2.00;;;;;;;21.12;50.48;100757.92;130336;1270;108861;-83
2022/06/11 10:36:06;;;;;;;3.60;2.20;;;;;;;21.18;50.25;100760.70;130325;1270;108859;-85
2022/06/11 10:39:19;;;;;;;4.60;2.50;;;;;;;21.29;51.76;100758.19;130217;1270;108710;-81
2022/06/11 10:42:32;;;;;;;3.90;2.50;;;;;;;21.34;50.57;100756.63;130455;1270;109576;-81
2022/06/11 10:45:37;;;;;;;2.90;2.60;;;;;;;21.38;50.63;100754.04;130172;1270;108901;-84
2022/06/11 10:48:43;;;;;;;2.80;2.30;;;;;;;21.34;49.26;100746.31;130409;1270;108752;-82
2022/06/11 10:51:54;;;;;;;3.00;2.70;;;;;;;21.33;50.23;100751.24;130334;1269;108938;-84
2022/06/11 10:54:58;;;;;;;;;;;;;;;21.35;50.56;100746.14;130547;1270;108725;-80
2022/06/11 10:58:13;;;;;;;3.50;3.10;;;;;;;21.38;49.89;100747.35;130287;1270;108836;-81
2022/06/11 11:01:24;;;;;;;4.40;3.10;;;;;;;21.36;49.76;100739.62;130236;1271;108857;-83
2022/06/11 11:04:38;;;;;;;3.10;2.80;;;;;;;21.42;50.72;100742.35;130387;1270;108915;-79
2022/06/11 11:07:51;;;;;;;3.80;3.00;;;;;;;21.50;50.79;100740.50;130495;1271;107752;-79
2022/06/11 11:10:59;;;;;;;3.90;3.10;;;;;;;21.43;50.36;100728.27;130711;1269;108882;-76
2022/06/11 11:14:16;;;;;;;4.10;3.30;;;;;;;21.44;50.76;100727.52;130323;1271;108709;-78
2022/06/11 11:17:23;;;;;;;5.90;2.80;;;;;;;21.55;51.83;100726.41;130347;1269;108852;-77
2022/06/11 11:20:38;;;;;;;3.80;2.70;;;;;;;21.66;51.03;100727.84;130467;1270;108649;-80
2022/06/11 11:23:44;;;;;;;4.10;3.10;;;;;;;21.67;51.05;100724.14;130273;1270;108402;-78
2022/06/11 11:26:55;;;;;;;3.40;2.50;;;;;;;21.69;50.25;100719.88;130312;1270;108864;-78
2022/06/11 11:30:11;;;;;;;2.80;2.40;;;;;;;21.69;50.52;100721.38;129954;1271;108679;-77
2022/06/11 11:33:28;;;;;;;2.60;2.00;;;;;;;21.71;50.69;100722.00;130021;1271;108803;-78
2022/06/11 11:36:34;;;;;;;4.00;2.80;;;;;;;21.70;49.84;100719.91;130199;1270;108706;-78
2022/06/11 11:39:48;;;;;;;3.10;2.40;;;;;;;21.64;50.23;100722.04;130011;1271;108660;-77
2022/06/11 11:42:56;;;;;;;2.70;2.50;;;;;;;21.57;50.39;100714.34;130202;1271;108875;-80
2022/06/11 11:46:03;;;;;;;2.70;2.40;;;;;;;21.68;51.77;100714.58;130205;1270;108833;-76
2022/06/11 11:49:20;;;;;;;5.40;3.50;;;;;;;21.84;51.42;100721.61;129997;1271;108682;-79
2022/06/11 11:52:27;;;;;;;5.20;4.00;;;;;;;21.84;50.15;100718.15;130159;1270;109964;-79
2022/06/11 11:55:36;;;;;;;3.00;2.50;;;;;;;21.88;51.36;100716.54;130176;1271;108691;-79
2022/06/11 11:58:56;;;;;;;3.40;2.30;;;;;;;22.00;51.51;100710.28;130157;1271;109087;-77
2022/06/11 12:02:24;;;;;;;2.90;2.40;;;;;;;22.09;51.02;100708.36;130124;1270;107697;-79
2022/06/11 12:05:35;;;;;;;3.10;2.20;;;;;;;22.10;49.14;100712.38;130149;1270;108717;-88
2022/06/11 12:08:45;;;;;;;3.00;2.50;;;;;;;22.06;49.88;100711.46;130315;1270;109075;-81
2022/06/11 12:12:05;;;;;;;4.00;3.10;;;;;;;22.05;50.46;100716.44;130158;1271;108798;-80
2022/06/11 12:15:20;;;;;;;4.40;2.90;;;;;;;22.07;50.60;100716.73;130141;1271;108853;-81
2022/06/11 12:18:31;;;;;;;3.70;2.70;;;;;;;22.10;50.68;100711.99;130243;1271;107855;-81
2022/06/11 12:21:42;;;;;;;3.00;2.60;;;;;;;22.17;50.98;100708.85;130282;1270;108818;-80
2022/06/11 12:24:50;;;;;;;3.30;2.50;;;;;;;22.20;50.88;100705.16;130119;1270;108768;-81
2022/06/11 12:27:55;;;;;;;3.50;2.70;;;;;;;22.27;50.63;100708.11;130043;1271;107300;-85
2022/06/11 12:31:01;;;;;;;2.90;2.10;;;;;;;22.31;51.12;100706.95;130147;1271;108973;-84
2022/06/11 12:34:15;;;;;;;2.10;1.90;;;;;;;22.37;50.83;100706.80;130057;1271;108846;-81
2022/06/11 12:37:27;;;;;;;2.60;2.20;;;;;;;22.34;50.28;100706.39;130193;1270;108617;-81
2022/06/11 12:40:40;;;;;;;2.50;2.30;;;;;;;22.31;50.72;100704.02;130272;1270;109089;-81
2022/06/11 12:43:54;;;;;;;2.70;2.10;;;;;;;22.29;50.85;100703.55;130334;1271;108904;-81
2022/06/11 12:47:05;;;;;;;2.10;1.60;;;;;;;22.25;49.64;100700.64;130300;1270;108735;-84
2022/06/11 12:50:23;;;;;;;3.70;2.80;;;;;;;22.28;50.85;100695.98;130251;1270;108757;-87
2022/06/11 12:53:47;;;;;;;3.30;1.80;;;;;;;22.35;50.26;100699.77;130129;1270;108848;-84
2022/06/11 12:57:20;;;;;;;2.20;1.90;;;;;;;22.35;49.73;100698.94;130149;1270;108791;-83
2022/06/11 13:00:43;;;;;;;2.50;1.70;;;;;;;22.38;50.05;100701.67;129901;1270;520420;-83
2022/06/11 13:04:16;;;;;;;3.00;1.90;;;;;;;22.42;49.80;100702.44;130302;1270;108778;-89
2022/06/11 13:07:30;;;;;;;3.70;2.10;;;;;;;22.48;49.80;100700.93;130246;1270;108838;-82
2022/06/11 13:10:42;;;;;;;2.40;1.70;;;;;;;22.44;50.62;100700.13;130214;1270;107343;-83
2022/06/11 13:14:06;;;;;;;2.60;1.90;;;;;;;22.45;50.06;100699.20;130330;1270;108729;-85
2022/06/11 13:17:25;;;;;;;2.10;1.80;;;;;;;22.40;50.64;100695.92;130287;1270;108729;-81
2022/06/11 13:20:39;;;;;;;5.30;2.10;;;;;;;22.43;50.81;100695.88;130196;1270;108777;-82
2022/06/11 13:23:55;;;;;;;2.30;2.10;;;;;;;22.45;50.48;100692.17;130197;1270;108857;-86
2022/06/11 13:27:10;;;;;;;3.30;2.20;;;;;;;22.49;50.62;100697.96;130173;1270;108682;-82
2022/06/11 13:30:29;;;;;;;3.80;2.00;;;;;;;22.59;50.63;100692.73;130252;1270;108908;-84
2022/06/11 13:33:52;;;;;;;3.90;2.10;;;;;;;22.67;51.02;100697.73;130197;1270;108854;-88
2022/06/11 13:37:13;;;;;;;2.80;2.30;;;;;;;22.68;50.50;100702.45;130187;1270;108673;-85
2022/06/11 13:40:34;;;;;;;6.50;2.20;;;;;;;22.51;50.14;100706.39;130130;1270;108814;-77
2022/06/11 13:44:05;;;;;;;3.30;2.30;;;;;;;22.48;51.10;100704.27;130059;1270;108715;-77
2022/06/11 13:47:29;;;;;;;2.40;2.20;;;;;;;22.58;51.28;100697.42;130047;1270;109024;-81
2022/06/11 13:50:55;;;;;;;5.20;2.50;;;;;;;22.60;50.77;100700.30;130143;1270;108475;-81
2022/06/11 13:57:57;;;;;;;3.00;2.70;;;;;;;22.80;50.26;100687.06;130159;1270;108713;-82
2022/06/11 14:01:31;;;;;;;3.80;2.70;;;;;;;22.84;51.14;100682.22;130181;1270;108752;-79
2022/06/11 14:04:42;;;;;;;2.80;2.30;;;;;;;22.94;49.96;100681.61;130225;1271;108726;-82
2022/06/11 14:07:49;;;;;;;2.80;2.50;;;;;;;22.91;49.33;100679.40;130102;1270;108870;-81
2022/06/11 14:10:55;;;;;;;8.90;3.50;;;;;;;22.99;50.28;100678.17;130236;1270;108812;-77
2022/06/11 14:14:02;;;;;;;3.90;2.50;;;;;;;23.09;50.04;100678.02;130208;1270;107861;-79
2022/06/11 14:17:40;;;;;;;4.20;2.80;;;;;;;23.18;50.64;100674.88;129972;1271;109244;-80
2022/06/11 14:20:54;;;;;;;3.30;2.80;;;;;;;23.29;50.31;100667.30;130169;1270;108468;-82
2022/06/11 14:23:59;;;;;;;3.80;3.00;;;;;;;23.42;50.47;100667.95;130169;1270;108831;-79
2022/06/11 14:27:25;;;;;;;3.00;2.70;;;;;;;23.54;49.58;100668.48;130255;1270;109133;-84
2022/06/11 14:30:31;;;;;;;3.80;3.00;;;;;;;23.52;49.12;100673.17;130199;1270;109046;-79